Time;durP1;ratioP1;P1;durP2;ratioP2;P2;SDS_P1;SDS_P2;PMS_P1;PMS_P2;Temp;Humidity;BMP_temperature;BMP_pressure;BME280_temperature;BME280_humidity;BME280_pressure;Samples;Min_cycle;Max_cycle;Signal;HPM_P1;HPM_P2
2023/01/16 00:01:22;;;;;;;1.50;1.20;;;5.60;99.90;;;;;;5108078;28;20464;-70
2023/01/16 00:03:49;;;;;;;3.70;1.30;;;5.60;99.90;;;;;;5105157;28;20473;-71
2023/01/16 00:06:16;;;;;;;1.70;1.00;;;5.60;99.90;;;;;;5106592;28;20517;-70
2023/01/16 00:08:44;;;;;;;2.27;1.17;;;5.60;99.90;;;;;;5106809;28;20481;-70
2023/01/16 00:11:12;;;;;;;1.97;1.20;;;5.60;99.90;;;;;;5106663;28;20511;-70
2023/01/16 00:13:40;;;;;;;2.50;1.37;;;5.70;99.90;;;;;;5104885;28;20457;-70
2023/01/16 00:16:07;;;;;;;2.30;1.20;;;5.70;99.90;;;;;;5106392;28;20449;-69
2023/01/16 00:18:35;;;;;;;1.87;1.30;;;5.80;99.90;;;;;;5106010;28;20499;-68
2023/01/16 00:21:02;;;;;;;2.07;1.20;;;5.80;99.90;;;;;;5104393;28;20493;-69
2023/01/16 00:23:29;;;;;;;2.47;1.30;;;5.80;99.90;;;;;;5104263;28;20544;-70
2023/01/16 00:25:56;;;;;;;1.60;1.13;;;5.80;99.90;;;;;;5103460;28;20488;-70
2023/01/16 00:28:24;;;;;;;2.90;1.10;;;5.80;99.90;;;;;;5104644;28;20453;-69
2023/01/16 00:30:51;;;;;;;1.80;1.17;;;5.80;99.90;;;;;;5105796;28;20484;-69
2023/01/16 00:33:18;;;;;;;2.87;1.10;;;5.80;99.90;;;;;;5106882;28;20457;-69
2023/01/16 00:35:45;;;;;;;4.23;1.37;;;5.90;99.90;;;;;;5106930;28;20450;-70
2023/01/16 00:38:12;;;;;;;2.10;1.30;;;5.90;99.90;;;;;;5108079;28;20870;-70
2023/01/16 00:40:39;;;;;;;3.37;1.20;;;5.90;99.90;;;;;;5106617;28;20475;-69
2023/01/16 00:43:05;;;;;;;5.67;1.30;;;5.90;99.90;;;;;;5106043;28;20520;-70
2023/01/16 00:45:34;;;;;;;2.33;1.00;;;5.90;99.90;;;;;;5106058;28;21061;-69
2023/01/16 00:48:00;;;;;;;2.13;1.20;;;6.00;99.90;;;;;;5105391;28;20453;-70
2023/01/16 00:50:27;;;;;;;2.67;1.07;;;5.90;99.90;;;;;;5107117;28;20516;-69
2023/01/16 00:52:54;;;;;;;2.07;1.00;;;5.90;99.90;;;;;;5107957;28;20453;-70
2023/01/16 00:55:21;;;;;;;2.10;1.30;;;6.00;99.90;;;;;;5108417;28;20454;-69
2023/01/16 00:57:50;;;;;;;3.33;1.00;;;5.90;99.90;;;;;;5107761;28;20487;-69
2023/01/16 01:00:20;;;;;;;3.33;1.27;;;5.90;99.90;;;;;;5108777;28;20449;-68
2023/01/16 01:02:51;;;;;;;3.53;1.20;;;5.90;99.90;;;;;;5108154;28;20459;-70
2023/01/16 01:05:18;;;;;;;4.70;1.20;;;5.90;99.90;;;;;;5102734;28;20493;-70
2023/01/16 01:07:45;;;;;;;4.47;1.30;;;5.90;99.90;;;;;;5098687;28;20543;-69
2023/01/16 01:10:12;;;;;;;2.83;1.27;;;5.90;99.90;;;;;;5100175;28;20997;-69
2023/01/16 01:12:39;;;;;;;2.60;1.20;;;5.90;99.90;;;;;;5098434;28;20460;-69
2023/01/16 01:15:07;;;;;;;4.03;1.20;;;5.90;99.90;;;;;;5098203;28;20449;-69
2023/01/16 01:17:34;;;;;;;1.70;0.90;;;5.90;99.90;;;;;;5097901;28;20453;-70
2023/01/16 01:20:03;;;;;;;6.77;1.60;;;5.80;99.90;;;;;;5097780;28;20544;-69
2023/01/16 01:22:29;;;;;;;4.83;1.40;;;5.80;99.90;;;;;;5097832;28;20453;-70
2023/01/16 01:24:56;;;;;;;2.63;1.23;;;5.80;99.90;;;;;;5097743;28;20569;-69
2023/01/16 01:27:23;;;;;;;3.93;1.10;;;5.80;99.90;;;;;;5097174;28;20552;-69
2023/01/16 01:29:50;;;;;;;3.83;1.67;;;5.70;99.90;;;;;;5097716;28;20532;-70
2023/01/16 01:32:17;;;;;;;4.07;1.37;;;5.70;99.90;;;;;;5097689;28;20548;-69
2023/01/16 01:34:44;;;;;;;1.50;1.10;;;5.60;99.90;;;;;;5097955;28;20540;-69
2023/01/16 01:37:12;;;;;;;2.07;1.17;;;5.60;99.90;;;;;;5097558;28;20479;-70
2023/01/16 01:39:39;;;;;;;4.23;1.30;;;5.60;99.90;;;;;;5097073;28;20453;-71
2023/01/16 01:44:53;;;;;;;2.07;1.00;;;5.50;99.90;;;;;;5096876;28;21024;-69
2023/01/16 01:47:24;;;;;;;4.40;1.27;;;5.40;99.90;;;;;;5096661;28;20505;-70
2023/01/16 01:49:52;;;;;;;2.00;1.23;;;5.40;99.90;;;;;;5096648;28;20528;-70
2023/01/16 01:52:21;;;;;;;2.73;1.17;;;5.30;99.90;;;;;;5096346;28;20463;-69
2023/01/16 01:54:52;;;;;;;2.27;1.47;;;5.20;99.90;;;;;;5097095;28;20453;-68
2023/01/16 01:57:26;;;;;;;2.23;1.20;;;5.20;99.90;;;;;;5097143;28;20452;-70
2023/01/16 01:59:59;;;;;;;1.50;1.10;;;5.20;99.90;;;;;;5097034;28;20530;-69
2023/01/16 02:02:30;;;;;;;1.80;1.30;;;5.20;99.90;;;;;;5096866;28;20441;-70
2023/01/16 02:04:58;;;;;;;3.30;1.50;;;5.20;99.90;;;;;;5097376;28;20550;-69
2023/01/16 02:07:28;;;;;;;3.77;1.00;;;5.20;99.90;;;;;;5097621;28;20544;-69
2023/01/16 02:10:02;;;;;;;1.60;1.03;;;5.30;99.90;;;;;;5097375;28;20447;-69
2023/01/16 02:12:30;;;;;;;3.50;1.20;;;5.30;99.90;;;;;;5097672;28;20444;-69
2023/01/16 02:14:58;;;;;;;1.70;1.10;;;5.30;99.90;;;;;;5097213;28;20544;-70
2023/01/16 02:20:21;;;;;;;1.70;1.10;;;5.30;99.90;;;;;;5096436;28;20754;-70
2023/01/16 02:23:48;;;;;;;1.50;1.00;;;5.30;99.90;;;;;;5096866;28;20781;-70
2023/01/16 02:26:46;;;;;;;2.03;1.20;;;5.30;99.90;;;;;;5054051;28;20479;-70
2023/01/16 02:29:41;;;;;;;5.97;1.00;;;5.30;99.90;;;;;;5095051;28;20544;-70
2023/01/16 02:32:21;;;;;;;3.23;1.60;;;5.30;99.90;;;;;;5096422;28;20533;-68
2023/01/16 02:35:04;;;;;;;2.60;1.40;;;5.30;99.90;;;;;;5096621;28;20455;-71
2023/01/16 02:37:42;;;;;;;1.60;1.00;;;5.30;99.90;;;;;;5096709;28;20894;-69
2023/01/16 02:40:28;;;;;;;3.40;1.30;;;5.30;99.90;;;;;;5096859;28;20437;-70
2023/01/16 02:43:04;;;;;;;2.73;1.87;;;5.30;99.90;;;;;;5095950;28;20477;-70
2023/01/16 02:45:42;;;;;;;3.77;1.93;;;5.30;99.90;;;;;;5097283;28;20556;-70
2023/01/16 02:48:18;;;;;;;5.17;1.97;;;5.30;99.90;;;;;;5097053;28;20724;-69
2023/01/16 02:50:53;;;;;;;1.60;1.13;;;5.30;99.90;;;;;;5096491;28;20452;-70
2023/01/16 02:53:26;;;;;;;2.80;1.20;;;5.20;99.90;;;;;;5096208;28;20441;-69
2023/01/16 02:55:57;;;;;;;1.80;1.20;;;5.20;99.90;;;;;;5096276;28;20437;-69
2023/01/16 02:58:25;;;;;;;1.50;1.10;;;5.30;99.90;;;;;;5096797;28;20468;-70
2023/01/16 03:00:55;;;;;;;3.93;1.30;;;5.30;99.90;;;;;;5096964;28;20449;-69
2023/01/16 03:03:42;;;;;;;6.00;1.20;;;5.30;99.90;;;;;;5097461;28;20461;-69
2023/01/16 03:06:31;;;;;;;1.60;1.20;;;5.30;99.90;;;;;;5101236;28;20576;-70
2023/01/16 03:09:13;;;;;;;5.47;2.50;;;5.30;99.90;;;;;;5101769;28;20787;-69
2023/01/16 03:11:48;;;;;;;3.47;3.10;;;5.20;99.90;;;;;;5101036;28;20537;-70
2023/01/16 03:14:36;;;;;;;13.70;9.97;;;5.20;99.90;;;;;;5101334;28;20528;-68
2023/01/16 03:17:13;;;;;;;29.23;17.80;;;5.20;99.90;;;;;;5101283;28;20453;-69
2023/01/16 03:19:59;;;;;;;27.80;19.33;;;5.20;99.90;;;;;;5101596;28;20779;-70
2023/01/16 03:22:33;;;;;;;30.90;19.00;;;5.10;99.90;;;;;;5102002;28;20902;-69
2023/01/16 03:25:12;;;;;;;22.67;15.83;;;5.10;99.90;;;;;;5100875;28;20461;-69
2023/01/16 03:27:49;;;;;;;19.33;13.50;;;5.00;99.90;;;;;;5100931;28;20833;-69
2023/01/16 03:30:26;;;;;;;16.90;10.90;;;5.00;99.90;;;;;;5099937;28;20987;-70
2023/01/16 03:32:59;;;;;;;13.97;10.37;;;4.90;99.90;;;;;;5099906;28;20528;-69
2023/01/16 03:35:32;;;;;;;12.20;8.20;;;4.90;99.90;;;;;;5100019;28;20465;-69
2023/01/16 03:38:04;;;;;;;8.53;6.20;;;4.90;99.90;;;;;;5100173;28;20920;-70
2023/01/16 03:40:35;;;;;;;6.97;4.40;;;4.90;99.90;;;;;;5099762;28;20536;-70
2023/01/16 03:43:05;;;;;;;7.07;3.70;;;5.00;99.90;;;;;;5099514;28;20481;-70
2023/01/16 03:45:39;;;;;;;6.67;3.00;;;4.90;99.90;;;;;;5098911;28;20981;-70
2023/01/16 03:48:10;;;;;;;4.53;2.43;;;4.90;99.90;;;;;;5099261;28;20455;-70
2023/01/16 03:50:41;;;;;;;3.50;1.77;;;4.80;99.90;;;;;;5099562;28;20451;-68
2023/01/16 03:53:12;;;;;;;3.70;2.30;;;4.90;99.90;;;;;;5101499;28;20778;-69
2023/01/16 03:55:46;;;;;;;2.90;1.70;;;4.80;99.90;;;;;;5103083;28;20457;-69
2023/01/16 03:58:20;;;;;;;3.03;1.40;;;4.80;99.90;;;;;;5100635;28;20555;-69
2023/01/16 04:00:52;;;;;;;5.63;1.43;;;4.80;99.90;;;;;;5102402;28;20521;-68
2023/01/16 04:03:27;;;;;;;2.33;1.40;;;4.80;99.90;;;;;;5100640;28;20464;-69
2023/01/16 04:06:01;;;;;;;1.70;1.20;;;4.70;99.90;;;;;;5101532;28;20460;-69
2023/01/16 04:08:32;;;;;;;3.17;1.60;;;4.70;99.90;;;;;;5101364;28;20441;-69
2023/01/16 04:10:59;;;;;;;4.83;1.30;;;4.70;99.90;;;;;;5102020;28;20451;-70
2023/01/16 04:13:30;;;;;;;2.10;1.60;;;4.80;99.90;;;;;;5099466;28;20548;-69
2023/01/16 04:15:59;;;;;;;1.83;1.37;;;4.70;99.90;;;;;;5099155;28;20532;-69
2023/01/16 04:18:30;;;;;;;3.00;1.40;;;4.70;99.90;;;;;;5099474;28;20542;-69
2023/01/16 04:20:59;;;;;;;2.00;1.47;;;4.70;99.90;;;;;;5100149;28;20456;-70
2023/01/16 04:23:26;;;;;;;2.50;1.60;;;4.70;99.90;;;;;;5100685;28;20529;-70
2023/01/16 04:25:53;;;;;;;2.03;1.20;;;4.70;99.90;;;;;;5099831;28;20487;-69
2023/01/16 04:28:19;;;;;;;3.30;1.50;;;4.70;99.90;;;;;;5099641;28;20528;-69
2023/01/16 04:30:46;;;;;;;2.33;1.47;;;4.70;99.90;;;;;;5098869;28;20458;-70
2023/01/16 04:33:13;;;;;;;6.40;1.70;;;4.60;99.90;;;;;;5099534;28;20467;-70
2023/01/16 04:35:40;;;;;;;2.47;1.50;;;4.60;99.90;;;;;;5099694;28;20449;-70
2023/01/16 04:38:08;;;;;;;2.00;1.43;;;4.60;99.90;;;;;;5099263;28;20847;-70
2023/01/16 04:40:35;;;;;;;3.67;1.57;;;4.60;99.90;;;;;;5099486;28;20453;-69
2023/01/16 04:43:02;;;;;;;1.90;1.53;;;4.60;99.90;;;;;;5098534;28;20484;-69
2023/01/16 04:45:29;;;;;;;2.90;1.80;;;4.50;99.90;;;;;;5098782;28;20957;-69
2023/01/16 04:47:55;;;;;;;4.00;1.70;;;4.50;99.90;;;;;;5099451;28;20460;-69
2023/01/16 04:50:22;;;;;;;3.63;1.40;;;4.50;99.90;;;;;;5098992;28;20936;-70
2023/01/16 04:52:49;;;;;;;3.80;1.30;;;4.40;99.90;;;;;;5098212;28;20465;-70
2023/01/16 04:55:17;;;;;;;4.17;1.80;;;4.40;99.90;;;;;;5099143;28;20552;-70
2023/01/16 04:57:44;;;;;;;4.20;2.00;;;4.40;99.90;;;;;;5098794;28;20453;-70
2023/01/16 05:00:12;;;;;;;4.43;1.70;;;4.30;99.90;;;;;;5098458;28;20463;-69
2023/01/16 05:02:39;;;;;;;3.30;1.80;;;4.30;99.90;;;;;;5098412;28;20488;-69
2023/01/16 05:05:07;;;;;;;4.90;1.70;;;4.30;99.90;;;;;;5098456;28;20477;-69
2023/01/16 05:07:34;;;;;;;1.50;1.40;;;4.30;99.90;;;;;;5097660;28;20946;-69
2023/01/16 05:10:00;;;;;;;3.07;1.40;;;4.20;99.90;;;;;;5098448;28;20993;-69
2023/01/16 05:12:29;;;;;;;1.97;1.37;;;4.20;99.90;;;;;;5097884;28;20453;-70
2023/01/16 05:14:55;;;;;;;2.47;1.90;;;4.20;99.90;;;;;;5098479;28;20544;-70
2023/01/16 05:17:24;;;;;;;2.20;1.67;;;4.20;99.90;;;;;;5098818;28;20560;-69
2023/01/16 05:19:51;;;;;;;2.50;1.73;;;4.20;99.90;;;;;;5098174;28;20453;-70
2023/01/16 05:22:18;;;;;;;7.33;2.17;;;4.20;99.90;;;;;;5098236;28;20854;-69
2023/01/16 05:24:45;;;;;;;3.33;1.50;;;4.20;99.90;;;;;;5098221;28;20548;-70
2023/01/16 05:27:12;;;;;;;3.03;1.67;;;4.20;99.90;;;;;;5096820;28;20791;-69
2023/01/16 05:29:40;;;;;;;1.73;1.63;;;4.20;99.90;;;;;;5097304;28;20548;-69
2023/01/16 05:32:07;;;;;;;4.90;1.57;;;4.20;99.90;;;;;;5097605;28;20468;-70
2023/01/16 05:34:34;;;;;;;2.60;1.93;;;4.20;99.90;;;;;;5097293;28;20467;-70
2023/01/16 05:37:01;;;;;;;4.07;1.57;;;4.20;99.90;;;;;;5096959;28;20536;-69
2023/01/16 05:39:28;;;;;;;3.10;1.60;;;4.30;99.90;;;;;;5097078;28;20786;-70
2023/01/16 05:41:54;;;;;;;3.30;1.80;;;4.30;99.90;;;;;;5097386;28;20453;-71
2023/01/16 05:44:21;;;;;;;3.90;2.10;;;4.30;99.90;;;;;;5096943;28;20438;-70
2023/01/16 05:46:50;;;;;;;2.47;1.53;;;4.30;99.90;;;;;;5097815;28;20587;-70
2023/01/16 05:49:17;;;;;;;2.53;1.70;;;4.30;99.90;;;;;;5098644;28;20778;-70
2023/01/16 05:51:44;;;;;;;2.33;1.60;;;4.40;99.90;;;;;;5098305;28;20465;-70
2023/01/16 05:54:12;;;;;;;3.70;1.63;;;4.40;99.90;;;;;;5097220;28;20453;-70
2023/01/16 05:56:39;;;;;;;4.93;2.00;;;4.50;99.90;;;;;;5096002;28;20460;-69
2023/01/16 05:59:06;;;;;;;7.63;2.23;;;4.40;99.90;;;;;;5096831;28;20468;-69
2023/01/16 06:01:33;;;;;;;4.53;2.03;;;4.50;99.90;;;;;;5095774;28;20655;-69
2023/01/16 06:04:01;;;;;;;2.43;1.60;;;4.50;99.90;;;;;;5096110;28;20532;-69
2023/01/16 06:06:28;;;;;;;4.53;2.00;;;4.60;99.90;;;;;;5096008;28;20485;-71
2023/01/16 06:08:55;;;;;;;5.17;1.63;;;4.70;99.90;;;;;;5096674;28;20541;-69
2023/01/16 06:11:22;;;;;;;1.90;1.47;;;4.60;99.90;;;;;;5097959;28;20836;-70
2023/01/16 06:13:48;;;;;;;3.13;1.70;;;4.60;99.90;;;;;;5097115;28;20475;-70
2023/01/16 06:16:16;;;;;;;7.33;2.03;;;4.60;99.90;;;;;;5095917;28;20548;-69
2023/01/16 06:18:43;;;;;;;2.67;2.10;;;4.60;99.90;;;;;;5095874;28;20933;-69
2023/01/16 06:21:11;;;;;;;3.70;1.80;;;4.50;99.90;;;;;;5095962;28;20548;-70
2023/01/16 06:23:38;;;;;;;4.10;1.60;;;4.50;99.90;;;;;;5096259;28;20651;-70
2023/01/16 06:26:09;;;;;;;2.70;2.03;;;4.50;99.90;;;;;;5096290;28;20472;-70
2023/01/16 06:28:36;;;;;;;3.87;2.17;;;4.50;99.90;;;;;;5096714;28;20759;-68
2023/01/16 06:31:03;;;;;;;4.43;2.20;;;4.50;99.90;;;;;;5096803;28;20464;-71
2023/01/16 06:33:30;;;;;;;6.53;1.63;;;4.50;99.90;;;;;;5096896;28;20851;-69
2023/01/16 06:35:57;;;;;;;4.20;1.63;;;4.40;99.90;;;;;;5096681;28;20453;-69
2023/01/16 06:38:25;;;;;;;3.27;1.50;;;4.50;99.90;;;;;;5096485;28;20454;-68
2023/01/16 06:40:55;;;;;;;3.07;2.77;;;4.50;99.90;;;;;;5095942;28;20541;-70
2023/01/16 06:43:23;;;;;;;6.40;1.93;;;4.50;99.90;;;;;;5096078;28;20496;-69
2023/01/16 06:45:49;;;;;;;3.27;1.90;;;4.50;99.90;;;;;;5096494;28;20492;-70
2023/01/16 06:48:16;;;;;;;4.03;2.23;;;4.50;99.90;;;;;;5096738;28;20570;-69
2023/01/16 06:50:43;;;;;;;6.83;2.20;;;4.50;99.90;;;;;;5098612;28;20540;-70
2023/01/16 06:53:10;;;;;;;3.93;2.10;;;4.50;99.90;;;;;;5096628;28;20479;-70
2023/01/16 06:55:39;;;;;;;4.53;1.97;;;4.50;99.90;;;;;;5096666;28;20453;-69
2023/01/16 06:58:06;;;;;;;3.23;2.20;;;4.50;99.90;;;;;;5096566;28;20523;-69
2023/01/16 07:00:34;;;;;;;3.07;1.80;;;4.50;99.90;;;;;;5096025;28;20449;-69
2023/01/16 07:03:01;;;;;;;3.77;2.27;;;4.50;99.90;;;;;;5096689;28;20479;-69
2023/01/16 07:05:30;;;;;;;3.70;1.77;;;4.60;99.90;;;;;;5096321;28;20545;-70
2023/01/16 07:07:58;;;;;;;3.93;2.07;;;4.60;99.90;;;;;;5096529;28;20548;-70
2023/01/16 07:10:25;;;;;;;4.90;1.80;;;4.60;99.90;;;;;;5096692;28;20514;-71
2023/01/16 07:12:53;;;;;;;4.47;1.87;;;4.60;99.90;;;;;;5096898;28;20832;-70
2023/01/16 07:23:39;;;;;;;4.20;2.03;;;4.60;99.90;;;;;;5096378;28;20490;-71
2023/01/16 07:26:43;;;;;;;3.70;1.90;;;4.60;99.90;;;;;;5097361;28;20480;-68
2023/01/16 07:29:12;;;;;;;2.13;1.73;;;4.60;99.90;;;;;;5098010;28;20479;-69
2023/01/16 07:31:40;;;;;;;3.87;2.00;;;4.60;99.90;;;;;;5094767;28;20553;-69
2023/01/16 07:34:07;;;;;;;4.60;2.13;;;4.60;99.90;;;;;;5095335;28;20525;-68
2023/01/16 07:36:34;;;;;;;5.10;2.00;;;4.60;99.90;;;;;;5095272;28;20463;-69
2023/01/16 07:39:00;;;;;;;2.57;1.83;;;4.60;99.90;;;;;;5094751;28;20960;-70
2023/01/16 07:41:27;;;;;;;5.73;2.50;;;4.60;99.90;;;;;;5095250;28;20453;-69
2023/01/16 07:43:54;;;;;;;4.47;1.90;;;4.60;99.90;;;;;;5095554;28;20496;-69
2023/01/16 07:46:22;;;;;;;2.07;1.77;;;4.60;99.90;;;;;;5095506;28;21078;-69
2023/01/16 07:48:51;;;;;;;8.73;2.07;;;4.60;99.90;;;;;;5095339;28;20461;-69
2023/01/16 07:51:18;;;;;;;3.60;2.23;;;4.60;99.90;;;;;;5097725;28;20544;-68
2023/01/16 07:53:45;;;;;;;2.67;2.47;;;4.50;99.90;;;;;;5099383;28;20463;-69
2023/01/16 07:56:12;;;;;;;4.50;2.27;;;4.50;99.90;;;;;;5098142;28;20453;-69
2023/01/16 07:58:41;;;;;;;2.60;2.17;;;4.50;99.90;;;;;;5098207;28;20463;-69
2023/01/16 08:01:08;;;;;;;3.17;1.87;;;4.60;99.90;;;;;;5097965;28;20938;-68
2023/01/16 08:03:36;;;;;;;6.00;2.00;;;4.60;99.90;;;;;;5098547;28;20453;-68
2023/01/16 08:06:03;;;;;;;2.27;1.80;;;4.60;99.90;;;;;;5097542;28;20473;-69
2023/01/16 08:08:31;;;;;;;6.50;2.33;;;4.60;99.90;;;;;;5097942;28;20528;-70
2023/01/16 08:11:34;;;;;;;8.10;2.20;;;4.50;99.90;;;;;;5098229;28;20975;-69
2023/01/16 08:13:47;;;;;;;4.27;2.00;;;4.50;99.90;;;;;;5097224;28;20567;-70
2023/01/16 08:16:14;;;;;;;2.87;2.00;;;4.50;99.90;;;;;;5097704;28;20449;-69
2023/01/16 08:18:42;;;;;;;4.20;2.10;;;4.50;99.90;;;;;;5097607;28;20458;-70
2023/01/16 08:21:09;;;;;;;5.53;2.10;;;4.60;99.90;;;;;;5098201;28;20469;-70
2023/01/16 08:23:36;;;;;;;3.40;2.27;;;4.60;99.90;;;;;;5097681;28;20786;-70
2023/01/16 08:26:02;;;;;;;4.37;3.10;;;4.60;99.90;;;;;;5079564;28;20551;-70
2023/01/16 08:28:29;;;;;;;3.53;2.23;;;4.60;99.90;;;;;;5076982;28;20565;-70
2023/01/16 08:30:56;;;;;;;4.60;2.17;;;4.60;99.90;;;;;;5077190;28;20492;-70
2023/01/16 08:33:23;;;;;;;4.53;1.87;;;4.60;99.90;;;;;;5076292;28;20584;-69
2023/01/16 08:35:51;;;;;;;3.33;1.80;;;4.70;99.90;;;;;;5076168;28;20490;-69
2023/01/16 08:38:18;;;;;;;3.60;1.60;;;4.70;99.90;;;;;;5077812;28;20464;-69
2023/01/16 08:40:46;;;;;;;2.60;1.50;;;4.70;99.90;;;;;;5077366;28;20797;-71
2023/01/16 08:51:26;;;;;;;4.30;2.10;;;4.80;99.90;;;;;;5076741;28;20920;-69
2023/01/16 08:53:56;;;;;;;4.50;1.90;;;4.80;99.90;;;;;;5077042;28;20466;-69
2023/01/16 08:56:23;;;;;;;2.53;1.77;;;4.80;99.90;;;;;;5076259;28;20548;-69
2023/01/16 08:58:50;;;;;;;4.60;2.17;;;4.80;99.90;;;;;;5076180;28;20525;-70
2023/01/16 09:01:18;;;;;;;4.30;2.30;;;4.90;99.90;;;;;;5076742;28;20465;-69
2023/01/16 09:03:45;;;;;;;4.60;2.30;;;4.90;99.90;;;;;;5077189;28;20523;-68
2023/01/16 09:06:12;;;;;;;4.53;2.10;;;5.00;99.90;;;;;;5077292;28;20454;-69
2023/01/16 09:08:41;;;;;;;4.97;2.10;;;5.00;99.90;;;;;;5076790;28;20464;-70
2023/01/16 09:13:52;;;;;;;3.90;2.00;;;5.10;99.90;;;;;;5077020;28;20505;-68
2023/01/16 09:16:20;;;;;;;4.47;1.67;;;5.20;99.90;;;;;;5076756;28;20875;-70
2023/01/16 09:18:47;;;;;;;3.60;2.30;;;5.20;99.90;;;;;;5076828;28;20500;-68
2023/01/16 09:21:15;;;;;;;3.00;2.40;;;5.30;99.90;;;;;;5077201;28;20536;-68
2023/01/16 09:23:43;;;;;;;8.73;2.40;;;5.30;99.90;;;;;;5077460;28;20468;-70
2023/01/16 09:26:10;;;;;;;4.60;2.50;;;5.30;99.90;;;;;;5077736;28;20485;-70
2023/01/16 09:28:37;;;;;;;8.40;2.47;;;5.30;99.90;;;;;;5077056;28;20541;-70
2023/01/16 09:31:04;;;;;;;5.43;2.03;;;5.30;99.90;;;;;;5077302;28;20464;-70
2023/01/16 09:33:31;;;;;;;3.10;2.47;;;5.30;99.90;;;;;;5077123;28;20918;-70
2023/01/16 09:35:58;;;;;;;3.67;1.77;;;5.30;99.90;;;;;;5076612;28;20461;-70
2023/01/16 09:38:27;;;;;;;6.03;1.80;;;5.30;99.90;;;;;;5076086;28;20460;-70
2023/01/16 09:40:57;;;;;;;5.20;1.93;;;5.30;99.90;;;;;;5076058;28;20540;-70
2023/01/16 09:43:35;;;;;;;3.93;2.00;;;5.20;99.90;;;;;;5075669;28;20568;-70
2023/01/16 09:46:06;;;;;;;6.70;2.40;;;5.20;99.90;;;;;;5077317;28;20442;-69
2023/01/16 09:48:34;;;;;;;7.27;2.60;;;5.20;99.90;;;;;;5076437;28;20579;-70
2023/01/16 09:51:06;;;;;;;7.03;2.00;;;5.20;99.90;;;;;;5076868;28;20458;-71
2023/01/16 09:59:24;;;;;;;6.30;2.33;;;5.30;99.90;;;;;;5075527;28;20426;-70
2023/01/16 10:01:57;;;;;;;4.40;1.97;;;5.40;99.90;;;;;;5075644;28;20525;-69
2023/01/16 10:04:26;;;;;;;5.13;3.70;;;5.40;99.90;;;;;;5075195;28;20439;-69
2023/01/16 10:07:28;;;;;;;2.67;2.13;;;5.40;99.90;;;;;;5074821;28;20806;-69
2023/01/16 10:10:02;;;;;;;4.40;1.70;;;5.30;99.90;;;;;;5075243;28;20866;-69
2023/01/16 10:12:34;;;;;;;4.27;1.90;;;5.40;99.90;;;;;;5075318;28;20457;-70
2023/01/16 10:15:15;;;;;;;5.30;1.63;;;5.40;99.90;;;;;;5075262;28;20438;-70
2023/01/16 10:17:56;;;;;;;3.90;2.23;;;5.40;99.90;;;;;;5074901;28;20518;-69
2023/01/16 10:20:49;;;;;;;3.97;2.37;;;5.40;99.90;;;;;;5074814;28;20453;-71
2023/01/16 10:23:33;;;;;;;5.10;2.13;;;5.50;99.90;;;;;;5075144;28;20442;-69
2023/01/16 10:26:07;;;;;;;4.90;2.30;;;5.50;99.90;;;;;;5075278;28;20525;-70
2023/01/16 10:28:47;;;;;;;7.30;2.10;;;5.60;99.90;;;;;;5075040;28;20856;-69
2023/01/16 10:31:20;;;;;;;7.13;1.90;;;5.60;99.90;;;;;;5075080;28;20478;-69
2023/01/16 10:33:55;;;;;;;3.97;2.43;;;5.70;99.90;;;;;;5075006;28;20464;-68
2023/01/16 10:36:26;;;;;;;2.40;1.30;;;5.90;99.90;;;;;;5074946;28;20754;-70
2023/01/16 10:38:56;;;;;;;2.07;1.30;;;6.00;99.90;;;;;;5074582;28;20887;-71
2023/01/16 10:49:55;;;;;;;2.70;1.37;;;6.30;99.90;;;;;;5074548;28;20426;-69
2023/01/16 10:52:24;;;;;;;4.23;1.03;;;6.30;99.90;;;;;;5074299;28;20454;-69
2023/01/16 10:54:52;;;;;;;3.50;1.30;;;6.30;99.90;;;;;;5074483;28;20518;-69
2023/01/16 10:57:20;;;;;;;3.47;1.50;;;6.40;99.90;;;;;;5074718;28;20906;-70
2023/01/16 10:59:52;;;;;;;4.33;1.50;;;6.40;99.90;;;;;;5074638;28;20567;-70
2023/01/16 11:02:26;;;;;;;3.43;2.07;;;6.50;99.90;;;;;;5074473;28;20442;-71
2023/01/16 11:04:53;;;;;;;4.27;1.40;;;6.50;99.90;;;;;;5074651;28;20434;-70
2023/01/16 11:07:22;;;;;;;6.80;1.73;;;6.60;99.90;;;;;;5074877;28;20513;-70
2023/01/16 11:09:49;;;;;;;2.83;1.40;;;6.60;99.90;;;;;;5075253;28;20458;-71
2023/01/16 11:18:30;;;;;;;4.40;1.47;;;6.60;99.90;;;;;;5075728;28;20418;-69
2023/01/16 11:21:00;;;;;;;1.70;1.30;;;6.70;99.90;;;;;;5074473;28;20508;-70
2023/01/16 11:23:34;;;;;;;3.20;1.20;;;6.70;99.90;;;;;;5073897;28;20462;-69
2023/01/16 11:26:01;;;;;;;2.40;1.40;;;6.80;99.90;;;;;;5076365;28;20453;-70
2023/01/16 11:28:31;;;;;;;1.63;1.00;;;6.80;99.90;;;;;;5077792;28;20477;-70
2023/01/16 11:31:02;;;;;;;8.63;2.10;;;6.90;99.90;;;;;;5078056;28;20788;-70
2023/01/16 11:33:35;;;;;;;4.60;1.67;;;7.00;99.90;;;;;;5077986;28;20439;-69
2023/01/16 11:36:04;;;;;;;2.53;1.43;;;7.00;99.90;;;;;;5078361;28;20462;-79
2023/01/16 11:38:37;;;;;;;2.50;1.33;;;7.10;99.90;;;;;;5078140;28;20460;-69
2023/01/16 11:41:07;;;;;;;3.40;1.83;;;7.10;99.90;;;;;;5078263;28;20536;-69
2023/01/16 11:46:39;;;;;;;2.17;1.50;;;7.30;99.90;;;;;;5080176;28;20425;-70
2023/01/16 11:49:16;;;;;;;3.20;1.40;;;7.30;99.90;;;;;;5079192;28;20581;-70
2023/01/16 11:51:43;;;;;;;6.43;1.57;;;7.40;99.90;;;;;;5078487;28;20442;-70
2023/01/16 11:54:15;;;;;;;5.40;1.70;;;7.50;99.90;;;;;;5077553;28;20469;-70
2023/01/16 11:56:59;;;;;;;4.23;1.53;;;7.60;99.90;;;;;;5077124;28;20921;-69
2023/01/16 12:00:14;;;;;;;5.43;1.33;;;7.60;99.90;;;;;;5077529;28;20891;-69
2023/01/16 12:03:11;;;;;;;3.23;1.20;;;7.70;99.90;;;;;;5015780;28;20504;-69
2023/01/16 12:05:57;;;;;;;1.80;1.30;;;7.70;99.90;;;;;;5051763;28;20500;-70
2023/01/16 12:08:44;;;;;;;2.57;1.20;;;7.80;99.90;;;;;;5077642;28;20462;-70
2023/01/16 12:11:14;;;;;;;3.60;1.23;;;7.90;99.90;;;;;;5076815;28;20438;-70
2023/01/16 12:16:44;;;;;;;3.10;1.60;;;8.50;99.90;;;;;;5077211;28;20426;-70
2023/01/16 12:19:46;;;;;;;3.70;1.40;;;9.00;99.90;;;;;;5076109;28;20438;-70
2023/01/16 12:22:24;;;;;;;2.80;1.37;;;9.70;99.90;;;;;;5077105;28;20467;-70
2023/01/16 12:25:01;;;;;;;3.17;1.40;;;10.60;99.90;;;;;;5077169;28;20443;-68
2023/01/16 12:27:40;;;;;;;2.50;1.37;;;10.80;99.90;;;;;;5076788;28;20900;-70
2023/01/16 12:30:20;;;;;;;2.23;2.03;;;11.00;99.90;;;;;;5076759;28;20517;-69
2023/01/16 12:32:59;;;;;;;2.57;1.67;;;11.10;99.90;;;;;;5076705;28;20835;-68
2023/01/16 12:35:48;;;;;;;3.43;1.70;;;11.80;99.90;;;;;;5076702;28;20744;-69
2023/01/16 12:38:20;;;;;;;2.90;1.60;;;12.80;99.90;;;;;;5077349;28;20785;-69
2023/01/16 12:44:11;;;;;;;5.73;3.30;;;14.30;94.30;;;;;;5079800;28;20507;-69
2023/01/16 12:46:46;;;;;;;4.17;1.50;;;14.30;91.70;;;;;;5096484;28;20865;-69
2023/01/16 12:49:31;;;;;;;2.93;1.73;;;14.40;90.40;;;;;;5097399;28;20527;-70
2023/01/16 12:52:14;;;;;;;3.83;2.13;;;14.60;87.10;;;;;;5097156;28;20441;-69
2023/01/16 12:54:59;;;;;;;3.87;2.10;;;14.60;85.00;;;;;;5095291;28;20480;-69
2023/01/16 12:57:47;;;;;;;2.73;1.27;;;14.50;83.50;;;;;;5096776;28;20433;-69
2023/01/16 13:00:17;;;;;;;4.90;1.53;;;14.20;80.60;;;;;;5096660;28;20541;-69
2023/01/16 13:02:49;;;;;;;2.20;1.17;;;14.40;82.10;;;;;;5096401;28;20441;-68
2023/01/16 13:05:19;;;;;;;3.60;2.27;;;14.50;78.00;;;;;;5096363;28;20466;-68
2023/01/16 13:07:52;;;;;;;3.10;1.67;;;14.60;77.20;;;;;;5096747;28;20552;-69
2023/01/16 13:13:23;;;;;;;2.77;1.70;;;14.20;75.70;;;;;;5096416;28;20425;-69
2023/01/16 13:15:58;;;;;;;2.57;1.47;;;13.70;74.40;;;;;;5096068;28;20499;-69
2023/01/16 13:18:28;;;;;;;2.47;1.50;;;13.10;75.40;;;;;;5096767;28;20451;-71
2023/01/16 13:20:58;;;;;;;5.33;1.50;;;12.50;78.00;;;;;;5096272;28;20445;-69
2023/01/16 13:23:30;;;;;;;2.00;1.50;;;12.30;80.00;;;;;;5096639;28;20453;-70
2023/01/16 13:26:02;;;;;;;4.17;1.30;;;12.10;80.90;;;;;;5096138;28;20441;-72
2023/01/16 13:28:37;;;;;;;2.27;1.47;;;11.60;81.60;;;;;;5096474;28;20465;-70
2023/01/16 13:31:08;;;;;;;2.43;1.30;;;11.40;84.30;;;;;;5096053;28;20451;-69
2023/01/16 13:33:42;;;;;;;4.87;2.70;;;11.40;85.20;;;;;;5096063;28;20452;-69
2023/01/16 13:36:25;;;;;;;2.37;1.30;;;11.30;86.70;;;;;;5096719;28;20533;-70
2023/01/16 13:39:16;;;;;;;2.73;1.50;;;11.20;87.20;;;;;;5096987;28;20444;-69
2023/01/16 13:41:46;;;;;;;6.13;1.90;;;11.20;87.90;;;;;;5096832;28;20442;-69
2023/01/16 13:47:05;;;;;;;2.93;1.77;;;11.10;88.70;;;;;;5097346;28;20503;-70
2023/01/16 13:49:32;;;;;;;3.30;1.50;;;10.90;88.90;;;;;;5095991;28;20513;-69
2023/01/16 13:52:02;;;;;;;2.30;1.50;;;10.70;89.70;;;;;;5095858;28;20467;-69
2023/01/16 13:54:38;;;;;;;3.23;1.70;;;10.60;90.80;;;;;;5096299;28;20453;-69
2023/01/16 13:57:12;;;;;;;4.60;2.10;;;10.40;91.00;;;;;;5096287;28;20441;-69
2023/01/16 13:59:45;;;;;;;2.33;1.40;;;10.20;91.90;;;;;;5096914;28;20437;-70
2023/01/16 14:02:40;;;;;;;3.07;1.50;;;10.00;92.20;;;;;;5096119;28;20441;-69
2023/01/16 14:05:24;;;;;;;3.27;1.50;;;9.80;93.50;;;;;;5096513;28;20509;-69
2023/01/16 14:11:05;;;;;;;3.33;1.37;;;9.50;94.20;;;;;;5096142;28;20479;-69
2023/01/16 14:13:37;;;;;;;4.90;1.80;;;9.40;95.00;;;;;;5096660;28;20443;-70
2023/01/16 14:16:33;;;;;;;2.23;1.70;;;9.30;96.30;;;;;;5096095;28;20441;-69
2023/01/16 14:19:02;;;;;;;3.33;1.40;;;9.10;97.50;;;;;;5097890;28;20457;-70
2023/01/16 14:21:40;;;;;;;3.03;1.37;;;9.10;98.90;;;;;;5084851;28;20476;-70